createdAt,value
2022-11-18T00:01:08.866Z,3.8
2022-11-18T00:07:34.518Z,3.9
2022-11-18T00:13:53.803Z,3.9
2022-11-18T00:20:04.924Z,3.4
2022-11-18T00:26:10.021Z,4.4
2022-11-18T00:32:53.638Z,4.3
2022-11-18T00:51:20.678Z,4.8
2022-11-18T00:57:23.997Z,6.3
2022-11-18T01:03:35.115Z,5
2022-11-18T01:09:37.683Z,5.8
2022-11-18T01:15:35.093Z,5
2022-11-18T01:21:52.707Z,3.8
2022-11-18T01:27:56.023Z,3.5
2022-11-18T01:33:53.739Z,3.5
2022-11-18T01:39:52.038Z,3.9
2022-11-18T01:52:12.525Z,4.7
2022-11-18T02:04:31.599Z,3.7
2022-11-18T02:16:15.723Z,3.2
2022-11-18T02:35:10.371Z,2.9
2022-11-18T02:41:18.058Z,3.3
2022-11-18T02:47:19.824Z,4
2022-11-18T02:53:42.557Z,4.3
2022-11-18T02:59:49.066Z,4
2022-11-18T03:05:55.466Z,4.3
2022-11-18T03:11:57.982Z,4.8
2022-11-18T03:24:21.551Z,4
2022-11-18T03:30:27.256Z,4.7
2022-11-18T03:36:36.305Z,4.3
2022-11-18T03:42:55.440Z,4.5
2022-11-18T04:01:58.424Z,4.6
2022-11-18T04:08:00.360Z,4.8
2022-11-18T04:14:09.703Z,5.5
2022-11-18T04:20:02.608Z,4.7
2022-11-18T04:25:54.472Z,4.8
2022-11-18T04:44:46.374Z,5.1
2022-11-18T05:34:15.685Z,5.5
2022-11-18T05:40:45.036Z,6.3
2022-11-18T05:54:02.438Z,6.7
2022-11-18T06:49:23.072Z,6.8
2022-11-18T06:55:41.758Z,7.1
2022-11-18T07:14:09.698Z,8.6
2022-11-18T07:19:59.477Z,11.6
2022-11-18T07:25:53.855Z,12.4
2022-11-18T07:31:48.072Z,9.3
2022-11-18T07:37:39.101Z,8.4
2022-11-18T07:43:33.755Z,8.9
2022-11-18T07:49:30.580Z,10.7
2022-11-18T07:55:22.081Z,10.9
2022-11-18T08:01:14.202Z,10.4
2022-11-18T08:07:07.115Z,10.1
2022-11-18T08:13:00.392Z,9.6
2022-11-18T08:18:50.737Z,10.6
2022-11-18T08:24:48.507Z,10.9
2022-11-18T08:30:39.977Z,11.5
2022-11-18T08:36:35.396Z,10.3
2022-11-18T08:42:39.337Z,9.9
2022-11-18T08:48:33.644Z,8.8
2022-11-18T08:54:26.445Z,9.4
2022-11-18T09:00:19.562Z,9.8
2022-11-18T09:06:22.037Z,9.7
2022-11-18T09:12:14.961Z,10.8
2022-11-18T09:18:06.752Z,11.4
2022-11-18T09:23:59.342Z,10.8
2022-11-18T09:29:50.432Z,10.2
2022-11-18T09:35:42.517Z,9.7
2022-11-18T09:41:35.160Z,9
2022-11-18T09:47:35.808Z,8.4
2022-11-18T09:53:30.994Z,8
2022-11-18T09:59:32.505Z,7.3
2022-11-18T10:05:53.634Z,6.1
2022-11-18T10:11:57.220Z,6.7
2022-11-18T10:17:50.168Z,7.2
2022-11-18T10:23:41.874Z,6.5
2022-11-18T10:35:25.494Z,4.2
2022-11-18T10:41:17.518Z,7
2022-11-18T10:47:07.349Z,4.9
2022-11-18T10:52:58.026Z,2.1
2022-11-18T10:58:47.960Z,1.5
2022-11-18T11:04:39.153Z,1.7
2022-11-18T11:10:31.566Z,2
2022-11-18T11:16:31.303Z,1.8
2022-11-18T11:22:21.911Z,1.4
2022-11-18T11:28:22.008Z,1.7
2022-11-18T11:34:11.964Z,1.6
2022-11-18T11:40:00.332Z,1.4
2022-11-18T11:45:50.697Z,1.2
2022-11-18T11:51:40.992Z,1.1
2022-11-18T11:57:33.453Z,1.3
2022-11-18T12:03:24.350Z,1.4
2022-11-18T12:09:16.262Z,1.7
2022-11-18T12:15:07.370Z,1.2
2022-11-18T12:20:59.659Z,1.4
2022-11-18T12:26:49.593Z,1.3
2022-11-18T12:32:40.585Z,1.5
2022-11-18T12:38:31.550Z,1.9
2022-11-18T12:44:23.294Z,1.7
2022-11-18T12:50:16.102Z,1.8
2022-11-18T12:56:07.087Z,1.6
2022-11-18T13:01:57.529Z,1.8
2022-11-18T13:07:49.074Z,1.4
2022-11-18T13:13:38.144Z,1.7
2022-11-18T13:19:27.847Z,1.3
2022-11-18T13:25:18.722Z,1.2
2022-11-18T13:31:08.919Z,1.3
2022-11-18T13:36:59.806Z,1.3
2022-11-18T13:42:50.501Z,1.6
2022-11-18T13:48:41.327Z,1.4
2022-11-18T13:54:31.476Z,1.9
2022-11-18T14:00:23.641Z,1.7
2022-11-18T14:06:14.239Z,1.7
2022-11-18T14:12:05.043Z,1.8
2022-11-18T14:17:56.805Z,1.6
2022-11-18T14:23:49.467Z,1.4
2022-11-18T14:29:40.791Z,1.7
2022-11-18T14:35:40.097Z,1.6
2022-11-18T14:41:29.990Z,1.6
2022-11-18T14:47:20.571Z,1.2
2022-11-18T14:53:11.565Z,1.7
2022-11-18T14:59:01.412Z,1.5
2022-11-18T15:04:54.511Z,1.5
2022-11-18T15:10:44.738Z,1.7
2022-11-18T15:16:34.466Z,2
2022-11-18T15:22:23.581Z,3.9
2022-11-18T15:28:12.610Z,4.7
2022-11-18T15:34:24.657Z,6.1
2022-11-18T15:40:14.112Z,4.3
2022-11-18T15:46:05.239Z,12
2022-11-18T15:51:57.536Z,45.2
2022-11-18T15:57:52.589Z,15.1
2022-11-18T16:03:43.127Z,12
2022-11-18T16:09:33.982Z,7
2022-11-18T16:15:24.911Z,5.9
2022-11-18T16:21:18.668Z,4.9
2022-11-18T16:27:12.342Z,5.8
2022-11-18T16:33:03.529Z,5.9
2022-11-18T16:38:53.784Z,6.7
2022-11-18T16:44:44.578Z,6.9
2022-11-18T16:50:34.590Z,6.5
2022-11-18T16:56:30.137Z,6
2022-11-18T17:02:20.442Z,7.1
2022-11-18T17:08:11.193Z,6.1
2022-11-18T17:14:06.902Z,4.9
2022-11-18T17:19:57.902Z,6.5
2022-11-18T17:25:49.898Z,6.2
2022-11-18T17:31:39.813Z,7.5
2022-11-18T17:37:30.857Z,6.6
2022-11-18T17:43:24.708Z,5.2
2022-11-18T17:49:14.343Z,13.4
2022-11-18T17:55:04.414Z,18.4
2022-11-18T18:00:56.880Z,7.5
2022-11-18T18:06:47.275Z,9.1
2022-11-18T18:12:36.400Z,5.1
2022-11-18T18:18:25.135Z,3.5
2022-11-18T18:24:14.105Z,4.3
2022-11-18T18:30:05.538Z,2.7
2022-11-18T18:35:55.155Z,2.2
2022-11-18T18:41:44.407Z,2.4
2022-11-18T18:47:43.824Z,2.8
2022-11-18T18:53:59.149Z,4
2022-11-18T18:59:56.271Z,3
2022-11-18T19:07:04.651Z,2.9
2022-11-18T19:12:53.940Z,3.2
2022-11-18T19:18:45.449Z,3.4
2022-11-18T19:25:00.909Z,6.5
2022-11-18T19:44:16.761Z,19.7
2022-11-18T19:50:28.230Z,8
2022-11-18T19:56:21.341Z,5.9
2022-11-18T20:02:49.050Z,4.6
2022-11-18T20:09:04.688Z,8
2022-11-18T20:14:55.937Z,9.6
2022-11-18T20:20:48.921Z,8.9
2022-11-18T20:26:44.687Z,10.2
2022-11-18T20:32:39.919Z,10.9
2022-11-18T20:38:34.074Z,7.9
2022-11-18T20:44:29.619Z,9.4
2022-11-18T20:50:26.888Z,10.3
2022-11-18T20:56:20.506Z,10.2
2022-11-18T21:02:20.348Z,9.4
2022-11-18T21:08:12.569Z,7.4
2022-11-18T21:14:26.787Z,5.3
2022-11-18T21:20:50.691Z,6.3
2022-11-18T21:26:41.309Z,7.7
2022-11-18T21:32:53.405Z,5.3
2022-11-18T21:38:44.522Z,5.3
2022-11-18T21:44:50.088Z,7.1
2022-11-18T21:50:43.117Z,9.1
2022-11-18T21:56:50.511Z,4.6
2022-11-18T22:02:43.258Z,3.7
2022-11-18T22:08:39.816Z,3.8
2022-11-18T22:14:32.359Z,2.9
2022-11-18T22:20:41.180Z,3.3
2022-11-18T22:26:33.855Z,4.1
2022-11-18T22:32:29.119Z,4.8
2022-11-18T22:38:37.977Z,9.4
2022-11-18T22:44:28.123Z,6.3
2022-11-18T22:50:23.460Z,6.3
2022-11-18T23:08:36.560Z,7.4
2022-11-18T23:14:49.863Z,9.4
2022-11-18T23:26:54.036Z,6.8
2022-11-18T23:50:59.857Z,9
2022-11-18T23:56:50.845Z,10.3
